createdAt,value
2018-06-03T00:02:23.331Z,6.80
2018-06-03T00:04:51.473Z,6.20
2018-06-03T00:07:19.679Z,6.53
2018-06-03T00:09:48.296Z,7.55
2018-06-03T00:12:16.373Z,7.37
2018-06-03T00:14:46.193Z,6.50
2018-06-03T00:17:15.014Z,7.72
2018-06-03T00:19:43.975Z,7.87
2018-06-03T00:22:16.433Z,7.28
2018-06-03T00:24:44.599Z,7.25
2018-06-03T00:27:13.779Z,7.47
2018-06-03T00:29:43.591Z,7.45
2018-06-03T00:32:14.426Z,6.70
2018-06-03T00:34:42.579Z,7.35
2018-06-03T00:37:10.699Z,7.60
2018-06-03T00:39:40.325Z,6.90
2018-06-03T00:42:08.496Z,8.25
2018-06-03T00:44:36.610Z,8.00
2018-06-03T00:47:07.489Z,7.12
2018-06-03T00:49:35.590Z,7.35
2018-06-03T00:52:05.356Z,7.03
2018-06-03T00:54:35.811Z,6.97
2018-06-03T00:57:10.910Z,7.05
2018-06-03T00:59:39.037Z,6.80
2018-06-03T01:02:08.007Z,7.07
2018-06-03T01:04:36.170Z,7.15
2018-06-03T01:07:05.218Z,7.40
2018-06-03T01:09:34.043Z,7.75
2018-06-03T01:12:02.163Z,7.57
2018-06-03T01:14:31.132Z,8.45
2018-06-03T01:16:59.283Z,11.00
2018-06-03T01:19:28.177Z,8.60
2018-06-03T01:21:56.318Z,7.25
2018-06-03T01:24:24.440Z,7.00
2018-06-03T01:26:53.403Z,6.95
2018-06-03T01:29:22.907Z,6.75
2018-06-03T01:31:52.311Z,6.43
2018-06-03T01:34:20.698Z,6.30
2018-06-03T01:36:51.629Z,6.55
2018-06-03T01:39:20.352Z,7.95
2018-06-03T01:41:48.447Z,7.10
2018-06-03T01:44:17.430Z,6.85
2018-06-03T01:46:46.387Z,7.28
2018-06-03T01:49:14.771Z,8.05
2018-06-03T01:51:43.644Z,7.05
2018-06-03T01:54:13.406Z,6.60
2018-06-03T01:56:43.641Z,6.03
2018-06-03T01:59:11.750Z,6.30
2018-06-03T02:01:41.007Z,6.72
2018-06-03T02:04:09.641Z,6.03
2018-06-03T02:06:38.733Z,7.15
2018-06-03T02:09:10.709Z,7.40
2018-06-03T02:11:38.838Z,6.18
2018-06-03T02:14:08.346Z,6.53
2018-06-03T02:16:37.268Z,5.82
2018-06-03T02:19:05.379Z,6.87
2018-06-03T02:21:33.584Z,6.53
2018-06-03T02:24:02.525Z,6.20
2018-06-03T02:26:33.273Z,6.30
2018-06-03T02:29:01.690Z,6.30
2018-06-03T02:31:30.557Z,6.00
2018-06-03T02:33:59.265Z,7.43
2018-06-03T02:36:27.475Z,6.28
2018-06-03T02:38:55.639Z,6.40
2018-06-03T02:41:23.747Z,5.93
2018-06-03T02:43:55.095Z,6.78
2018-06-03T02:46:23.262Z,6.93
2018-06-03T02:48:51.376Z,6.68
2018-06-03T02:51:19.486Z,7.25
2018-06-03T02:53:47.857Z,5.93
2018-06-03T02:56:16.636Z,6.62
2018-06-03T02:58:45.484Z,6.07
2018-06-03T03:01:13.598Z,7.30
2018-06-03T03:03:41.716Z,6.30
2018-06-03T03:06:10.735Z,6.50
2018-06-03T03:08:38.859Z,7.70
2018-06-03T03:11:07.635Z,7.12
2018-06-03T03:13:36.149Z,5.87
2018-06-03T03:16:06.184Z,6.75
2018-06-03T03:18:35.140Z,7.00
2018-06-03T03:21:03.257Z,7.00
2018-06-03T03:23:31.869Z,6.00
2018-06-03T03:25:59.972Z,6.47
2018-06-03T03:28:29.082Z,6.95
2018-06-03T03:31:00.531Z,6.97
2018-06-03T03:33:29.428Z,6.47
2018-06-03T03:36:00.321Z,6.68
2018-06-03T03:38:28.435Z,6.55
2018-06-03T03:40:57.327Z,6.80
2018-06-03T03:43:27.854Z,6.87
2018-06-03T03:45:56.724Z,6.22
2018-06-03T03:48:24.843Z,6.50
2018-06-03T03:50:53.108Z,6.47
2018-06-03T03:53:22.185Z,7.37
2018-06-03T03:55:51.081Z,6.43
2018-06-03T03:58:19.981Z,5.90
2018-06-03T04:00:50.966Z,5.87
2018-06-03T04:03:19.663Z,6.40
2018-06-03T04:05:48.292Z,7.10
2018-06-03T04:08:19.847Z,5.87
2018-06-03T04:13:23.198Z,6.18
2018-06-03T04:15:51.561Z,6.25
2018-06-03T04:19:17.446Z,7.85
2018-06-03T04:21:47.005Z,7.43
2018-06-03T04:24:15.136Z,8.32
2018-06-03T04:26:44.822Z,8.18
2018-06-03T04:29:12.946Z,9.38
2018-06-03T04:31:41.794Z,8.35
2018-06-03T04:34:10.205Z,8.50
2018-06-03T04:36:39.428Z,9.63
2018-06-03T04:39:08.769Z,8.50
2018-06-03T04:41:37.614Z,6.30
2018-06-03T04:44:05.734Z,7.25
2018-06-03T04:46:34.699Z,7.30
2018-06-03T04:49:02.814Z,6.75
2018-06-03T04:51:32.992Z,8.25
2018-06-03T04:54:01.134Z,7.12
2018-06-03T04:56:30.145Z,6.97
2018-06-03T04:58:59.176Z,7.70
2018-06-03T05:01:27.265Z,7.03
2018-06-03T05:03:56.390Z,6.70
2018-06-03T05:06:25.864Z,7.80
2018-06-03T05:08:53.986Z,8.15
2018-06-03T05:11:22.108Z,7.30
2018-06-03T05:13:51.393Z,7.50
2018-06-03T05:16:19.575Z,7.75
2018-06-03T05:18:47.772Z,7.65
2018-06-03T05:21:17.638Z,7.43
2018-06-03T05:23:45.735Z,8.48
2018-06-03T05:26:16.197Z,8.07
2018-06-03T05:28:44.973Z,7.40
2018-06-03T05:31:14.775Z,7.97
2018-06-03T05:33:43.898Z,8.48
2018-06-03T05:36:12.128Z,7.25
2018-06-03T05:38:40.938Z,7.10
2018-06-03T05:41:09.815Z,6.62
2018-06-03T05:43:38.149Z,7.05
2018-06-03T05:46:06.590Z,7.57
2018-06-03T05:48:35.487Z,7.43
2018-06-03T05:51:06.043Z,6.05
2018-06-03T05:53:35.115Z,6.55
2018-06-03T05:56:06.305Z,6.50
2018-06-03T05:58:34.419Z,7.18
2018-06-03T06:01:03.382Z,7.57
2018-06-03T06:03:33.359Z,7.35
2018-06-03T06:06:01.473Z,7.12
2018-06-03T06:08:31.090Z,7.30
2018-06-03T06:11:00.963Z,7.32
2018-06-03T06:13:29.099Z,7.03
2018-06-03T06:15:58.008Z,6.22
2018-06-03T06:18:26.140Z,6.35
2018-06-03T06:20:54.296Z,6.90
2018-06-03T06:23:22.546Z,6.50
2018-06-03T06:25:52.208Z,6.27
2018-06-03T06:28:21.204Z,6.15
2018-06-03T06:30:50.625Z,6.50
2018-06-03T06:33:18.759Z,6.40
2018-06-03T06:35:46.885Z,6.25
2018-06-03T06:38:16.043Z,5.93
2018-06-03T06:40:45.558Z,5.50
2018-06-03T06:43:13.628Z,5.50
2018-06-03T06:45:42.525Z,6.20
2018-06-03T06:48:11.423Z,5.78
2018-06-03T06:50:41.147Z,6.93
2018-06-03T06:53:09.287Z,6.62
2018-06-03T06:55:38.363Z,7.10
2018-06-03T06:58:06.512Z,7.00
2018-06-03T07:00:34.722Z,7.30
2018-06-03T07:03:02.832Z,5.50
2018-06-03T07:05:30.956Z,7.53
2018-06-03T07:08:00.090Z,7.03
2018-06-03T07:10:28.977Z,6.68
2018-06-03T07:12:58.599Z,7.43
2018-06-03T07:15:26.717Z,7.20
2018-06-03T07:17:54.917Z,7.47
2018-06-03T07:20:23.096Z,7.40
2018-06-03T07:22:51.213Z,7.70
2018-06-03T07:25:19.400Z,7.18
2018-06-03T07:27:47.555Z,6.60
2018-06-03T07:30:16.411Z,6.90
2018-06-03T07:32:44.553Z,6.37
2018-06-03T07:35:12.681Z,6.70
2018-06-03T07:37:42.349Z,5.90
2018-06-03T07:40:10.620Z,6.80
2018-06-03T07:42:39.439Z,6.00
2018-06-03T07:45:08.319Z,6.90
2018-06-03T07:47:36.457Z,6.70
2018-06-03T07:50:04.588Z,6.60
2018-06-03T07:52:33.969Z,6.77
2018-06-03T07:55:02.124Z,5.30
2018-06-03T07:57:32.971Z,5.30
2018-06-03T08:00:01.081Z,5.40
2018-06-03T08:02:29.200Z,5.70
2018-06-03T08:04:57.308Z,5.82
2018-06-03T08:07:26.304Z,5.10
2018-06-03T08:09:55.173Z,5.47
2018-06-03T08:12:23.351Z,5.07
2018-06-03T08:14:52.453Z,5.47
2018-06-03T08:17:21.711Z,4.83
2018-06-03T08:19:49.818Z,6.20
2018-06-03T08:22:18.622Z,5.23
2018-06-03T08:24:47.531Z,4.70
2018-06-03T08:27:17.431Z,5.20
2018-06-03T08:29:46.603Z,4.70
2018-06-03T08:32:15.463Z,4.90
2018-06-03T08:34:43.566Z,4.97
2018-06-03T08:37:11.759Z,4.70
2018-06-03T08:39:39.867Z,4.23
2018-06-03T08:42:09.071Z,4.77
2018-06-03T08:44:38.656Z,4.30
2018-06-03T08:47:07.520Z,3.70
2018-06-03T08:49:35.643Z,3.90
2018-06-03T08:52:03.806Z,4.27
2018-06-03T08:54:31.868Z,4.37
2018-06-03T08:56:59.995Z,3.80
2018-06-03T08:59:28.105Z,4.23
2018-06-03T09:01:56.978Z,3.67
2018-06-03T09:04:26.748Z,4.60
2018-06-03T09:06:54.926Z,4.20
2018-06-03T09:09:23.772Z,4.70
2018-06-03T09:11:52.653Z,4.80
2018-06-03T09:14:23.038Z,5.17
2018-06-03T09:16:52.117Z,4.47
2018-06-03T09:19:21.663Z,4.60
2018-06-03T09:21:50.054Z,5.60
2018-06-03T09:24:19.335Z,5.73
2018-06-03T09:26:49.458Z,5.50
2018-06-03T09:29:17.656Z,4.63
2018-06-03T09:31:48.159Z,4.50
2018-06-03T09:34:16.419Z,4.40
2018-06-03T09:36:45.723Z,4.50
2018-06-03T09:39:14.593Z,3.43
2018-06-03T09:41:42.935Z,4.10
2018-06-03T09:44:12.690Z,4.73
2018-06-03T09:46:43.162Z,3.27
2018-06-03T09:49:12.020Z,4.97
2018-06-03T09:51:40.151Z,4.20
2018-06-03T09:54:08.909Z,3.70
2018-06-03T09:56:37.797Z,3.80
2018-06-03T09:59:05.946Z,4.13
2018-06-03T10:01:34.048Z,4.37
2018-06-03T10:04:05.216Z,3.97
2018-06-03T10:06:34.382Z,3.93
2018-06-03T10:09:02.529Z,4.13
2018-06-03T10:11:34.486Z,4.00
2018-06-03T10:14:05.020Z,3.70
2018-06-03T10:16:40.413Z,4.30
2018-06-03T10:19:09.341Z,5.30
2018-06-03T10:21:38.282Z,4.50
2018-06-03T10:24:06.397Z,3.40
2018-06-03T10:26:40.034Z,3.97
2018-06-03T10:29:10.129Z,2.80
2018-06-03T10:31:39.284Z,3.53
2018-06-03T10:34:09.113Z,3.73
2018-06-03T10:36:37.282Z,4.50
2018-06-03T10:39:06.344Z,3.50
2018-06-03T10:41:35.149Z,3.77
2018-06-03T10:44:03.510Z,3.50
2018-06-03T10:46:33.287Z,3.00
2018-06-03T10:49:02.337Z,2.90
2018-06-03T10:51:33.571Z,2.70
2018-06-03T10:54:03.800Z,2.90
2018-06-03T10:56:34.784Z,3.17
2018-06-03T10:59:04.984Z,3.13
2018-06-03T11:01:38.112Z,3.03
2018-06-03T11:04:09.783Z,3.60
2018-06-03T11:09:58.189Z,3.33
2018-06-03T11:12:31.307Z,3.60
2018-06-03T11:15:01.047Z,3.10
2018-06-03T11:17:29.793Z,3.03
2018-06-03T11:20:04.884Z,3.10
2018-06-03T11:22:46.833Z,3.07
2018-06-03T11:27:58.328Z,3.17
2018-06-03T11:35:57.424Z,3.53
2018-06-03T11:38:44.015Z,3.77
2018-06-03T11:41:15.539Z,2.43
2018-06-03T12:27:17.119Z,3.50
2018-06-03T12:29:53.253Z,3.53
2018-06-03T12:35:00.259Z,3.30
2018-06-03T12:37:28.512Z,3.10
2018-06-03T12:39:56.624Z,2.90
2018-06-03T12:48:40.688Z,3.10
2018-06-03T12:53:44.794Z,2.67
2018-06-03T12:56:27.625Z,2.87
2018-06-03T12:59:04.496Z,2.67
2018-06-03T14:10:37.181Z,3.40
2018-06-03T14:40:10.434Z,2.83
2018-06-03T14:42:48.583Z,3.20
2018-06-03T14:45:47.094Z,4.00
2018-06-03T15:46:20.478Z,3.17
2018-06-03T15:48:53.055Z,2.47
2018-06-03T15:51:29.598Z,2.23
2018-06-03T15:54:01.850Z,2.50
2018-06-03T16:02:10.664Z,2.10
2018-06-03T16:10:55.594Z,2.00
2018-06-03T16:19:24.304Z,2.03
2018-06-03T16:53:02.753Z,2.40
2018-06-03T16:55:33.381Z,2.20
2018-06-03T16:58:06.820Z,2.50
2018-06-03T17:00:36.048Z,2.40
2018-06-03T17:03:04.583Z,3.17
2018-06-03T17:05:32.701Z,2.47
2018-06-03T17:08:01.672Z,1.90
2018-06-03T17:10:29.885Z,2.90
2018-06-03T17:12:58.758Z,2.47
2018-06-03T17:15:28.429Z,2.40
2018-06-03T17:17:57.992Z,2.57
2018-06-03T17:23:39.078Z,2.87
2018-06-03T17:26:11.352Z,2.73
2018-06-03T17:34:30.534Z,3.07
2018-06-03T17:37:00.024Z,2.80
2018-06-03T17:39:28.134Z,2.20
2018-06-03T17:41:56.232Z,4.10
2018-06-03T17:44:29.104Z,3.90
2018-06-03T17:46:58.121Z,2.53
2018-06-03T17:49:45.348Z,3.30
2018-06-03T17:52:17.171Z,2.60
2018-06-03T17:54:49.825Z,3.07
2018-06-03T17:57:22.307Z,2.83
2018-06-03T17:59:51.211Z,3.47
2018-06-03T18:02:22.643Z,4.87
2018-06-03T18:04:52.166Z,4.63
2018-06-03T18:24:35.067Z,2.80
2018-06-03T18:27:21.212Z,3.27
2018-06-03T18:29:52.074Z,8.37
2018-06-03T18:32:24.034Z,6.37
2018-06-03T18:34:57.028Z,3.80
2018-06-03T18:37:31.498Z,3.17
2018-06-03T18:40:13.451Z,4.00
2018-06-03T18:42:51.599Z,3.40
2018-06-03T18:45:20.967Z,3.17
2018-06-03T18:47:51.362Z,3.80
2018-06-03T18:50:21.702Z,3.70
2018-06-03T18:52:50.572Z,3.77
2018-06-03T18:55:21.375Z,3.57
2018-06-03T18:57:52.571Z,3.20
2018-06-03T19:00:24.624Z,4.00
2018-06-03T19:02:52.752Z,3.70
2018-06-03T19:05:22.865Z,3.57
2018-06-03T19:07:53.749Z,4.57
2018-06-03T19:10:24.002Z,3.40
2018-06-03T19:12:54.342Z,3.53
2018-06-03T19:15:25.233Z,4.30
2018-06-03T19:18:01.179Z,3.67
2018-06-03T19:20:32.982Z,3.80
2018-06-03T19:23:03.847Z,3.20
2018-06-03T19:25:39.723Z,4.10
2018-06-03T19:28:09.512Z,4.27
2018-06-03T19:30:48.281Z,3.40
2018-06-03T19:33:20.005Z,4.23
2018-06-03T19:35:49.095Z,4.40
2018-06-03T19:38:18.279Z,3.80
2018-06-03T19:40:47.264Z,4.47
2018-06-03T19:43:24.031Z,3.90
2018-06-03T19:45:52.170Z,5.20
2018-06-03T19:48:21.014Z,4.87
2018-06-03T19:50:50.229Z,4.68
2018-06-03T19:53:18.397Z,4.23
2018-06-03T19:55:47.293Z,4.60
2018-06-03T19:58:17.049Z,4.67
2018-06-03T20:00:45.949Z,4.22
2018-06-03T20:03:15.337Z,5.68
2018-06-03T20:05:49.296Z,4.32
2018-06-03T20:08:17.433Z,4.85
2018-06-03T20:10:47.186Z,5.20
2018-06-03T20:13:16.497Z,4.65
2018-06-03T20:15:46.240Z,3.87
2018-06-03T20:18:14.350Z,4.28
2018-06-03T20:20:42.489Z,5.07
2018-06-03T20:23:10.647Z,3.95
2018-06-03T20:25:38.843Z,4.93
2018-06-03T20:28:06.964Z,4.47
2018-06-03T20:30:35.890Z,4.57
2018-06-03T20:33:03.984Z,5.35
2018-06-03T20:35:33.898Z,4.87
2018-06-03T20:38:02.966Z,4.50
2018-06-03T20:40:32.040Z,4.57
2018-06-03T20:43:00.179Z,5.68
2018-06-03T20:45:29.705Z,5.12
2018-06-03T20:47:58.768Z,4.37
2018-06-03T20:50:26.875Z,5.03
2018-06-03T20:52:55.762Z,5.40
2018-06-03T20:55:25.278Z,4.70
2018-06-03T20:57:56.775Z,5.25
2018-06-03T21:00:29.028Z,5.22
2018-06-03T21:02:57.740Z,5.22
2018-06-03T21:05:27.671Z,4.60
2018-06-03T21:07:59.660Z,4.97
2018-06-03T21:10:27.927Z,4.55
2018-06-03T21:13:03.240Z,5.25
2018-06-03T21:15:31.395Z,5.37
2018-06-03T21:18:01.589Z,6.18
2018-06-03T21:20:30.518Z,5.60
2018-06-03T21:23:01.170Z,6.22
2018-06-03T21:25:30.139Z,5.70
2018-06-03T21:27:59.817Z,5.85
2018-06-03T21:30:27.933Z,6.40
2018-06-03T21:32:56.848Z,6.00
2018-06-03T21:35:25.732Z,5.00
2018-06-03T21:37:55.109Z,5.80
2018-06-03T21:40:23.292Z,5.25
2018-06-03T21:42:51.389Z,5.43
2018-06-03T21:45:21.975Z,6.57
2018-06-03T21:47:51.166Z,5.87
2018-06-03T21:50:20.060Z,5.70
2018-06-03T21:52:48.794Z,5.20
2018-06-03T21:55:18.238Z,6.82
2018-06-03T21:57:47.380Z,6.45
2018-06-03T22:00:15.860Z,5.60
2018-06-03T22:02:45.234Z,4.87
2018-06-03T22:05:15.047Z,6.05
2018-06-03T22:07:51.000Z,5.72
2018-06-03T22:10:19.365Z,5.55
2018-06-03T22:12:48.343Z,7.15
2018-06-03T22:15:18.632Z,6.15
2018-06-03T22:17:47.707Z,7.57
2018-06-03T22:20:15.866Z,6.30
2018-06-03T22:22:46.955Z,6.85
2018-06-03T22:25:16.073Z,6.30
2018-06-03T22:27:45.801Z,7.28
2018-06-03T22:30:14.216Z,6.53
2018-06-03T22:32:45.991Z,6.53
2018-06-03T22:35:15.062Z,6.18
2018-06-03T22:37:43.286Z,5.90
2018-06-03T22:40:12.105Z,5.30
2018-06-03T22:42:41.384Z,5.90
2018-06-03T22:45:13.308Z,6.60
2018-06-03T22:47:42.361Z,5.97
2018-06-03T22:50:10.759Z,6.22
2018-06-03T22:52:40.301Z,6.65
2018-06-03T22:55:09.917Z,6.50
2018-06-03T22:57:44.730Z,6.93
2018-06-03T23:00:14.834Z,6.20
2018-06-03T23:02:42.953Z,6.95
2018-06-03T23:05:13.192Z,6.80
2018-06-03T23:07:42.321Z,6.57
2018-06-03T23:10:11.062Z,6.32
2018-06-03T23:12:39.955Z,6.20
2018-06-03T23:15:10.607Z,7.45
2018-06-03T23:17:38.921Z,6.65
2018-06-03T23:20:07.158Z,6.00
2018-06-03T23:22:35.319Z,6.20
2018-06-03T23:25:05.808Z,7.78
2018-06-03T23:27:36.712Z,6.87
2018-06-03T23:30:04.874Z,6.35
2018-06-03T23:32:33.841Z,5.65
2018-06-03T23:35:02.879Z,6.45
2018-06-03T23:37:31.001Z,7.60
2018-06-03T23:39:59.129Z,5.50
2018-06-03T23:42:27.251Z,6.50
2018-06-03T23:44:55.373Z,6.75
2018-06-03T23:47:27.191Z,6.35
2018-06-03T23:49:55.978Z,6.55
2018-06-03T23:52:24.121Z,6.85
2018-06-03T23:54:52.277Z,7.25
2018-06-03T23:57:20.454Z,6.47
2018-06-03T23:59:48.566Z,6.00
